Friendship, AR

4:01 AM CDT on July 06, 2015 (GMT -0500)
Coats Colony | | Change Station
CLOSE
Current Station
Personal Weather Station
Location: Malvern, AR
Elevation: 381 ft
Nearby Weather Stations

Elev 381 ft 34.33 °N, 92.91 °W | Updated 2 minutes ago

Partly Cloudy
Partly Cloudy
68.9 °F
Feels Like 68.9 °F
N
0.0
Wind Variable Wind from NW

Today
High -- | Low -- °F
--% Chance of Precip.
Yesterday
High -- | Low -- °F
Precip. -- in
6:05 AM 8:27 PM
Waning Gibbous, 77% visible
Pressure 30.08 in
Visibility 7.0 miles
Clouds Overcast 200 ft
Dew Point 69 °F
Humidity 99%
Rainfall 0.00 in
Snow Depth Not available.
UV 0 out of 12
Pollen 3.70 out of 12
Air Quality Not available.
Flu Activity Not available.
METAR KADF 060856Z AUTO 00000KT 7SM OVC002 21/21 A3005 RMK AO2 51006 T02110211 SLP186

More Conditions Fewer Conditions

Pressure 30.08 in
Visibility 7.0 miles
Clouds Overcast 200 ft
Dew Point 69 °F
Humidity 99%
Rainfall 0.00 in
Snow Depth Not available.
UV 0 out of 12
Pollen 3.70 out of 12
Air Quality Not available.
Flu Activity Not available.
METAR KADF 060856Z AUTO 00000KT 7SM OVC002 21/21 A3005 RMK AO2 51006 T02110211 SLP186

More Conditions Fewer Conditions

10-Day Weather Forecast

×

Almanac

Astronomy

Jul. 06, 2015 Rise Set
Actual Time
Civil Twilight
Nautical Twilight
Astronomical Twilight
Moon
Length of Visible Light
Length of Day
Tomorrow will be .
, % of the Moon is Illuminated

Today's Extremes

State Highs State Lows

Community

WunderPhotos

Upload Photos

1,835,520 photos uploaded!

WunderBlogs® & News

Nearby

Air Quality

  Air Quality AQ Index Pollutant
Not available.

Snow Depth

Station Depth Elevation

Earthquake Activity

City Distance Mag. Time & Date
Minimum magnitude displayed is 2.5.

Coastal Water Temperatures

Place Temperature

Stations

Nearby Weather Stations

Station Location Temp. Windchill Dew Point Humidity Wind Precip. Elev Updated Type